Skip Navigation Links
NOAA logo - Click to go to the NOAA homepage
NOAA's National Weather Service
Alaska Aviation Weather Unit
  NWS logo - Click to go to the NWS homepage
Left Navbar Graphic     09 AKDT = 17 GMT

   
NOAA is celebrating 200 years of science, service, and stewardship. Visit the NOAA 200th celebration Web site to learn more.
USA.gov is the U.S. Government's official Web portal to all Federal, state and local government Web resources and services.
Facebook
NWS on Facebook

Important Change Regarding the AAWU Web Presence

 

Over the last several months, the AAWU has been working to navigate its webpages to a nationally supported server. Security, as well as other needs, have necessitated the change.  In the process, we have made an effort to enhance the functionality of our website, as well as some of our products. As of June 20, 2017, aawu.arh.noaa.gov will be discontinued. The new AAWU web address is weather.gov/aawu. It is now live and will run in-parallel with the old site until it is discontinued. Please send any feedback or questions regarding the new webpages to nws.ar.aawu.webauthors@noaa.gov.  Thank you for your patience during this time of transition.
AAWU Home :: Display TAF Add Bookmark
TAF PAAQ 231228Z 2312/2412 14005KT P6SM VCSH BKN040 OVC080
      TEMPO 2312/2315 OVC030
     FM240300 17010KT P6SM BKN200=
SPECI PAAQ 231126Z AUTO 00000KT 10SM SCT023 OVC033 07/06 A2999 RMK AO2
     T00670061 TSNO=

METAR PAAQ 231153Z AUTO 00000KT 10SM OVC037 06/06 A2999 RMK AO2 SLP159
     60008 70009 T00610061 10094 20061 51008 TSNO=

METAR PAAQ 231253Z AUTO 00000KT 10SM SCT030 OVC039 07/05 A2999 RMK AO2
     SLP160 T00670050 TSNO=

SPECI PAAQ 231323Z AUTO 08004KT 10SM BKN028 OVC043 06/06 A2999 RMK AO2
     T00610061 TSNO=

METAR PAAQ 231353Z AUTO 00000KT 10SM SCT026 OVC055 06/05 A2999 RMK AO2
     SLP157 T00610050 TSNO=

METAR PAAQ 231453Z AUTO 35003KT 10SM FEW029 BKN042 OVC049 06/06
 A2999 RMK AO2 SLP159 T00610061 53001 TSNO=

METAR PAAQ 231553Z AUTO 00000KT 10SM BKN033 OVC041 07/06 A2999 RMK
 AO2 RAB18E29 SLP158 P0000 T00670061 TSNO=

METAR PAAQ 231653Z 00000KT 10SM OVC033 07/06 A2999 RMK AO2 SLP159
     T00720056=


NOAA's National Weather Service
Alaska Aviation Weather Unit
6930 Sand Lake Road
Anchorage, AK 99502-1845
Disclaimer
Credits
Glossary
Privacy Policy
About Us
Career Opportunities
Contact AAWU Internet Services Site last modified: April, 17th 2012